GCRR/ACE METAR and TAF weather

Enter ICAO airport designator
Station Type Date Time Source
GCRR METAR 2020/10/22 04:00 UTC NOAA

GCRR 220400Z AUTO 30003KT CAVOK 19/16 Q1015


Station Type Date Time Source
GCRR Decoded METAR 2020/10/22 04:00 UTC NOAA

Lanzarote / Aeropuerto, Spain (GCRR) 28-57N 013-36W 21M
Oct 22, 2020 - 12:00 AM EDT / 2020.10.22 0400 UTC
Wind: from the WNW (300 degrees) at 3 MPH (3 KT):0
Visibility: greater than 7 mile(s):0
Temperature: 66 F (19 C)
Dew Point: 60 F (16 C)
Relative Humidity: 82%
Pressure (altimeter): 29.97 in. Hg (1015 hPa)
ob: GCRR 220400Z AUTO 30003KT CAVOK 19/16 Q1015
cycle: 4

Station Type Date Time Source
GCRR TAF 2020/10/22 03:27 UTC NOAA

TAF GCRR 220200Z 2203/2303 32009KT 9999 FEW025 SCT050 TX27/2214Z TN20/2206Z

Example: see airport list